createdAt,value
2019-05-30T00:01:06.371Z,96817.41
2019-05-30T00:03:33.585Z,96816.55
2019-05-30T00:06:00.862Z,96821.84
2019-05-30T00:08:28.876Z,96825.70
2019-05-30T00:10:56.529Z,96817.98
2019-05-30T00:13:23.750Z,96822.16
2019-05-30T00:15:50.782Z,96822.50
2019-05-30T00:18:17.828Z,96824.95
2019-05-30T00:20:46.732Z,96829.53
2019-05-30T00:23:14.087Z,96824.87
2019-05-30T00:25:41.124Z,96828.91
2019-05-30T00:28:08.345Z,96824.92
2019-05-30T00:30:35.746Z,96823.71
2019-05-30T00:33:03.600Z,96830.27
2019-05-30T00:35:31.772Z,96827.11
2019-05-30T00:37:59.723Z,96832.92
2019-05-30T00:40:27.230Z,96830.37
2019-05-30T00:42:55.804Z,96830.03
2019-05-30T00:45:23.373Z,96829.34
2019-05-30T00:47:50.430Z,96820.72
2019-05-30T00:50:17.469Z,96815.30
2019-05-30T00:52:44.505Z,96818.94
2019-05-30T00:55:11.874Z,96816.77
2019-05-30T00:57:39.215Z,96820.69
2019-05-30T01:00:07.168Z,96823.14
2019-05-30T01:02:34.280Z,96817.95
2019-05-30T01:05:03.372Z,96817.55
2019-05-30T01:07:30.986Z,96818.08
2019-05-30T01:09:59.105Z,96817.37
2019-05-30T01:12:26.517Z,96815.83
2019-05-30T01:14:53.876Z,96815.92
2019-05-30T01:17:21.234Z,96811.59
2019-05-30T01:19:48.277Z,96819.74
2019-05-30T01:22:15.574Z,96817.84
2019-05-30T01:24:42.623Z,96819.22
2019-05-30T01:27:09.657Z,96818.27
2019-05-30T01:29:36.982Z,96815.31
2019-05-30T01:32:04.017Z,96810.38
2019-05-30T01:34:31.075Z,96810.98
2019-05-30T01:36:59.805Z,96808.81
2019-05-30T01:39:26.979Z,96814.31
2019-05-30T01:41:53.994Z,96814.31
2019-05-30T01:44:21.269Z,96801.87
2019-05-30T01:46:48.305Z,96808.00
2019-05-30T01:49:15.358Z,96813.02
2019-05-30T01:51:42.393Z,96809.74
2019-05-30T01:54:09.431Z,96809.04
2019-05-30T01:56:36.758Z,96808.16
2019-05-30T01:59:04.795Z,96812.41
2019-05-30T02:01:32.224Z,96817.25
2019-05-30T02:03:59.438Z,96814.45
2019-05-30T02:06:26.490Z,96812.52
2019-05-30T02:08:53.858Z,96809.62
2019-05-30T02:11:21.199Z,96810.33
2019-05-30T02:13:48.240Z,96821.59
2019-05-30T02:16:15.293Z,96815.66
2019-05-30T02:18:42.589Z,96809.94
2019-05-30T02:21:10.079Z,96811.63
2019-05-30T02:23:37.466Z,96812.37
2019-05-30T02:26:06.199Z,96808.94
2019-05-30T02:28:33.710Z,96814.02
2019-05-30T02:31:01.074Z,96816.48
2019-05-30T02:33:29.503Z,96811.58
2019-05-30T02:35:56.550Z,96814.34
2019-05-30T02:38:23.953Z,96816.85
2019-05-30T02:40:51.008Z,96817.94
2019-05-30T02:43:18.354Z,96818.06
2019-05-30T02:45:45.402Z,96823.33
2019-05-30T02:48:12.756Z,96823.95
2019-05-30T02:50:39.874Z,96819.87
2019-05-30T02:53:08.414Z,96824.74
2019-05-30T02:55:37.379Z,96827.34
2019-05-30T02:58:06.216Z,96831.71
2019-05-30T03:00:33.833Z,96829.11
2019-05-30T03:03:01.853Z,96831.11
2019-05-30T03:05:29.979Z,96834.28
2019-05-30T03:07:57.013Z,96836.05
2019-05-30T03:10:24.144Z,96836.84
2019-05-30T03:12:51.183Z,96834.95
2019-05-30T03:15:18.574Z,96831.94
2019-05-30T03:17:45.651Z,96838.44
2019-05-30T03:20:21.943Z,96844.01
2019-05-30T03:22:41.683Z,96836.72
2019-05-30T03:25:11.107Z,96834.95
2019-05-30T03:27:37.533Z,96834.00
2019-05-30T03:30:09.505Z,96842.59
2019-05-30T03:35:06.201Z,96838.06
2019-05-30T03:37:32.780Z,96833.09
2019-05-30T03:40:00.159Z,96833.51
2019-05-30T03:42:27.573Z,96838.84
2019-05-30T03:44:54.927Z,96835.55
2019-05-30T03:47:21.987Z,96835.97
2019-05-30T03:49:49.036Z,96839.52
2019-05-30T03:52:17.245Z,96837.77
2019-05-30T03:54:44.873Z,96835.73
2019-05-30T03:57:13.980Z,96839.77
2019-05-30T03:59:41.028Z,96839.25
2019-05-30T04:02:09.515Z,96838.53
2019-05-30T04:04:37.458Z,96839.97
2019-05-30T04:07:06.702Z,96840.52
2019-05-30T04:09:33.822Z,96847.98
2019-05-30T04:12:01.162Z,96851.42
2019-05-30T04:14:28.204Z,96850.84
2019-05-30T04:16:55.569Z,96847.38
2019-05-30T04:19:22.672Z,96847.73
2019-05-30T04:21:50.072Z,96857.03
2019-05-30T04:24:19.617Z,96854.66
2019-05-30T04:26:47.137Z,96852.38
2019-05-30T04:29:15.036Z,96851.91
2019-05-30T04:31:43.244Z,96860.59
2019-05-30T04:34:12.444Z,96856.68
2019-05-30T04:36:40.038Z,96863.22
2019-05-30T04:39:08.629Z,96867.21
2019-05-30T04:41:36.094Z,96870.04
2019-05-30T04:44:03.445Z,96862.88
2019-05-30T04:46:30.483Z,96873.64
2019-05-30T04:48:57.534Z,96874.89
2019-05-30T04:51:24.813Z,96879.02
2019-05-30T04:53:51.866Z,96874.25
2019-05-30T04:56:21.226Z,96874.19
2019-05-30T04:58:47.928Z,96880.02
2019-05-30T05:01:15.582Z,96882.69
2019-05-30T05:03:46.593Z,96880.33
2019-05-30T05:06:13.817Z,96879.62
2019-05-30T05:08:41.282Z,96875.92
2019-05-30T05:11:12.277Z,96874.88
2019-05-30T05:13:37.331Z,96877.83
2019-05-30T05:16:22.067Z,96881.63
2019-05-30T05:18:33.450Z,96884.23
2019-05-30T05:21:00.479Z,96883.30
2019-05-30T05:23:27.528Z,96891.33
2019-05-30T05:26:01.043Z,96896.44
2019-05-30T05:28:24.065Z,96886.84
2019-05-30T05:30:51.474Z,96890.62
2019-05-30T05:33:18.838Z,96889.25
2019-05-30T05:35:46.180Z,96889.98
2019-05-30T05:38:13.248Z,96889.09
2019-05-30T05:40:40.591Z,96887.04
2019-05-30T05:43:07.645Z,96893.91
2019-05-30T05:45:34.994Z,96896.30
2019-05-30T05:48:02.041Z,96896.41
2019-05-30T05:50:29.082Z,96899.70
2019-05-30T05:52:56.380Z,96903.50
2019-05-30T05:55:23.416Z,96911.29
2019-05-30T05:57:50.717Z,96905.40
2019-05-30T06:00:18.898Z,96912.86
2019-05-30T06:02:46.083Z,96911.56
2019-05-30T06:05:13.121Z,96909.84
2019-05-30T06:07:40.468Z,96913.14
2019-05-30T06:10:07.520Z,96918.36
2019-05-30T06:12:34.874Z,96912.41
2019-05-30T06:15:02.672Z,96916.92
2019-05-30T06:17:29.869Z,96917.49
2019-05-30T06:19:56.918Z,96918.73
2019-05-30T06:22:23.962Z,96913.54
2019-05-30T06:24:51.361Z,96918.39
2019-05-30T06:27:20.055Z,96920.98
2019-05-30T06:29:47.209Z,96919.94
2019-05-30T06:32:14.550Z,96921.30
2019-05-30T06:34:41.677Z,96921.84
2019-05-30T06:37:11.900Z,96923.44
2019-05-30T06:39:37.462Z,96927.63
2019-05-30T06:42:04.727Z,96927.22
2019-05-30T06:44:32.140Z,96930.16
2019-05-30T06:46:59.481Z,96921.77
2019-05-30T06:49:26.945Z,96917.11
2019-05-30T06:51:54.052Z,96920.91
2019-05-30T06:54:22.059Z,96913.50
2019-05-30T06:56:50.182Z,96908.48
2019-05-30T06:59:17.239Z,96918.08
2019-05-30T07:01:44.535Z,96918.47
2019-05-30T07:04:12.339Z,96923.44
2019-05-30T07:06:39.837Z,96925.38
2019-05-30T07:09:07.416Z,96921.02
2019-05-30T07:11:34.773Z,96932.34
2019-05-30T07:14:01.826Z,96928.18
2019-05-30T07:16:29.514Z,96937.64
2019-05-30T07:18:57.722Z,96942.66
2019-05-30T07:21:25.528Z,96933.25
2019-05-30T07:23:52.652Z,96937.97
2019-05-30T07:26:19.689Z,96941.20
2019-05-30T07:28:47.097Z,96941.91
2019-05-30T07:31:14.374Z,96941.91
2019-05-30T07:33:41.686Z,96939.84
2019-05-30T07:36:09.041Z,96939.59
2019-05-30T07:38:36.073Z,96943.50
2019-05-30T07:41:03.126Z,96944.09
2019-05-30T07:43:31.571Z,96941.45
2019-05-30T07:45:59.176Z,96945.19
2019-05-30T07:51:29.057Z,96955.97
2019-05-30T07:53:56.161Z,96953.38
2019-05-30T07:56:23.519Z,96948.85
2019-05-30T07:58:50.548Z,96952.37
2019-05-30T08:01:17.920Z,96959.84
2019-05-30T08:03:44.970Z,96961.30
2019-05-30T08:06:12.342Z,96960.05
2019-05-30T08:08:39.702Z,96960.50
2019-05-30T08:11:09.952Z,96964.21
2019-05-30T08:13:35.738Z,96964.27
2019-05-30T08:16:03.110Z,96962.61
2019-05-30T08:18:30.137Z,96957.67
2019-05-30T08:20:57.482Z,96958.40
2019-05-30T08:23:24.863Z,96962.17
2019-05-30T08:25:51.901Z,96959.67
2019-05-30T08:28:18.999Z,96950.05
2019-05-30T08:30:46.402Z,96956.97
2019-05-30T08:33:13.438Z,96948.51
2019-05-30T08:35:49.213Z,96951.63
2019-05-30T08:38:09.531Z,96950.51
2019-05-30T08:40:37.718Z,96952.60
2019-05-30T08:43:06.250Z,96949.08
2019-05-30T08:45:33.735Z,96950.56
2019-05-30T08:48:00.802Z,96942.41
2019-05-30T08:50:28.201Z,96937.25
2019-05-30T08:52:55.247Z,96943.13
2019-05-30T08:55:22.297Z,96938.25
2019-05-30T08:57:49.341Z,96947.77
2019-05-30T09:00:16.389Z,96948.16
2019-05-30T09:02:43.424Z,96940.03
2019-05-30T09:05:10.823Z,96942.55
2019-05-30T09:07:38.254Z,96938.77
2019-05-30T09:10:05.464Z,96944.09
2019-05-30T09:12:32.505Z,96937.83
2019-05-30T09:14:59.540Z,96935.76
2019-05-30T09:17:27.978Z,96935.15
2019-05-30T09:19:55.010Z,96924.41
2019-05-30T09:22:22.502Z,96927.48
2019-05-30T09:24:49.837Z,96924.70
2019-05-30T09:27:16.987Z,96924.70
2019-05-30T09:29:44.754Z,96925.61
2019-05-30T09:32:12.209Z,96925.73
2019-05-30T09:34:40.257Z,96922.16
2019-05-30T09:37:08.270Z,96915.22
2019-05-30T09:39:35.614Z,96914.19
2019-05-30T09:42:02.666Z,96923.54
2019-05-30T09:44:30.009Z,96917.76
2019-05-30T09:46:57.389Z,96913.64
2019-05-30T09:49:24.720Z,96913.41
2019-05-30T09:51:52.083Z,96905.86
2019-05-30T09:54:19.130Z,96920.38
2019-05-30T09:56:46.637Z,96923.39
2019-05-30T09:59:14.037Z,96912.02
2019-05-30T10:01:42.603Z,96915.88
2019-05-30T10:04:10.390Z,96919.47
2019-05-30T10:06:37.436Z,96916.48
2019-05-30T10:09:04.788Z,96910.33
2019-05-30T10:11:32.964Z,96907.92
2019-05-30T10:14:00.322Z,96913.95
2019-05-30T10:16:27.369Z,96908.98
2019-05-30T10:18:54.724Z,96913.38
2019-05-30T10:21:21.771Z,96914.44
2019-05-30T10:23:49.449Z,96913.66
2019-05-30T10:26:16.725Z,96911.08
2019-05-30T10:28:44.974Z,96907.42
2019-05-30T10:31:12.491Z,96913.70
2019-05-30T10:33:39.540Z,96908.69
2019-05-30T10:36:06.926Z,96904.22
2019-05-30T10:38:33.984Z,96901.13
2019-05-30T10:41:01.021Z,96898.87
2019-05-30T10:43:29.401Z,96900.07
2019-05-30T10:45:57.497Z,96908.14
2019-05-30T10:48:24.594Z,96902.05
2019-05-30T10:50:52.297Z,96897.46
2019-05-30T10:53:19.756Z,96893.11
2019-05-30T10:55:48.090Z,96893.84
2019-05-30T10:58:15.596Z,96893.52
2019-05-30T11:00:42.953Z,96892.04
2019-05-30T11:03:10.003Z,96895.14
2019-05-30T11:05:37.343Z,96889.15
2019-05-30T11:08:06.357Z,96879.38
2019-05-30T11:10:33.635Z,96879.95
2019-05-30T11:13:05.840Z,96875.95
2019-05-30T11:15:29.418Z,96875.89
2019-05-30T11:17:57.730Z,96874.16
2019-05-30T11:20:24.847Z,96880.38
2019-05-30T11:22:53.057Z,96876.91
2019-05-30T11:25:20.750Z,96885.05
2019-05-30T11:27:48.578Z,96876.59
2019-05-30T11:30:16.029Z,96878.02
2019-05-30T11:32:43.187Z,96875.95
2019-05-30T11:35:10.439Z,96880.91
2019-05-30T11:37:37.765Z,96877.25
2019-05-30T11:40:04.821Z,96872.62
2019-05-30T11:42:31.852Z,96869.74
2019-05-30T11:44:59.945Z,96865.59
2019-05-30T11:47:27.036Z,96867.66
2019-05-30T11:49:54.088Z,96861.55
2019-05-30T11:52:21.120Z,96861.12
2019-05-30T11:54:49.784Z,96858.66
2019-05-30T11:57:16.863Z,96858.38
2019-05-30T11:59:44.395Z,96854.04
2019-05-30T12:02:11.477Z,96853.66
2019-05-30T12:04:38.792Z,96852.50
2019-05-30T12:07:05.829Z,96857.77
2019-05-30T12:09:33.187Z,96854.11
2019-05-30T12:12:01.440Z,96850.73
2019-05-30T12:14:28.899Z,96862.64
2019-05-30T12:16:55.941Z,96860.09
2019-05-30T12:19:22.991Z,96857.30
2019-05-30T12:21:51.475Z,96858.55
2019-05-30T12:24:19.060Z,96852.07
2019-05-30T12:26:46.085Z,96855.34
2019-05-30T12:29:13.133Z,96855.40
2019-05-30T12:31:40.416Z,96849.96
2019-05-30T12:34:07.468Z,96844.38
2019-05-30T12:36:34.514Z,96851.77
2019-05-30T12:39:02.652Z,96851.19
2019-05-30T12:41:29.877Z,96847.28
2019-05-30T12:43:57.015Z,96839.92
2019-05-30T12:46:24.036Z,96842.73
2019-05-30T12:48:51.173Z,96836.78
2019-05-30T12:51:18.610Z,96839.27
2019-05-30T12:53:45.659Z,96829.73
2019-05-30T12:56:12.699Z,96834.11
2019-05-30T12:58:40.083Z,96835.30
2019-05-30T13:01:07.133Z,96829.30
2019-05-30T13:03:34.178Z,96831.50
2019-05-30T13:06:03.427Z,96826.71
2019-05-30T13:08:31.561Z,96823.79
2019-05-30T13:10:59.442Z,96826.16
2019-05-30T13:13:26.526Z,96828.89
2019-05-30T13:15:54.542Z,96829.94
2019-05-30T13:18:21.670Z,96832.51
2019-05-30T13:20:49.064Z,96827.47
2019-05-30T13:23:17.153Z,96825.88
2019-05-30T13:25:44.465Z,96828.61
2019-05-30T13:28:11.505Z,96826.54
2019-05-30T13:30:38.616Z,96827.34
2019-05-30T13:33:07.041Z,96823.30
2019-05-30T13:35:34.092Z,96819.64
2019-05-30T13:38:01.442Z,96827.34
2019-05-30T13:40:28.552Z,96827.04
2019-05-30T13:42:55.607Z,96830.20
2019-05-30T13:45:22.661Z,96822.67
2019-05-30T13:47:49.766Z,96821.46
2019-05-30T13:50:16.829Z,96828.51
2019-05-30T13:52:43.889Z,96825.33
2019-05-30T13:55:12.103Z,96826.05
2019-05-30T13:57:39.209Z,96834.38
2019-05-30T14:00:06.264Z,96829.63
2019-05-30T14:02:33.669Z,96832.81
2019-05-30T14:05:02.134Z,96827.38
2019-05-30T14:07:29.333Z,96830.34
2019-05-30T14:09:56.654Z,96824.52
2019-05-30T14:12:23.690Z,96821.52
2019-05-30T14:14:50.748Z,96826.84
2019-05-30T14:17:17.777Z,96823.88
2019-05-30T14:19:45.148Z,96822.29
2019-05-30T14:22:12.521Z,96818.05
2019-05-30T14:24:39.553Z,96812.45
2019-05-30T14:27:07.614Z,96820.66
2019-05-30T14:29:34.817Z,96818.73
2019-05-30T14:32:03.808Z,96809.09
2019-05-30T14:34:30.894Z,96814.11
2019-05-30T14:36:57.921Z,96812.23
2019-05-30T14:39:24.959Z,96806.98
2019-05-30T14:41:52.004Z,96813.28
2019-05-30T14:44:20.343Z,96819.79
2019-05-30T14:46:47.692Z,96820.73
2019-05-30T14:49:14.750Z,96822.44
2019-05-30T14:51:41.774Z,96824.53
2019-05-30T14:54:08.921Z,96823.47
2019-05-30T14:56:35.935Z,96820.83
2019-05-30T14:59:02.969Z,96818.67
2019-05-30T15:01:30.020Z,96819.17
2019-05-30T15:03:57.054Z,96816.61
2019-05-30T15:06:24.117Z,96814.97
2019-05-30T15:08:51.149Z,96823.20
2019-05-30T15:11:18.211Z,96822.55
2019-05-30T15:13:45.236Z,96814.77
2019-05-30T15:16:13.057Z,96819.21
2019-05-30T15:18:40.194Z,96812.27
2019-05-30T15:21:08.222Z,96817.38
2019-05-30T15:23:35.315Z,96813.75
2019-05-30T15:26:02.717Z,96818.48
2019-05-30T15:28:29.749Z,96820.26
2019-05-30T15:30:56.781Z,96821.89
2019-05-30T15:33:24.163Z,96823.66
2019-05-30T15:35:51.519Z,96820.25
2019-05-30T15:38:18.636Z,96820.70
2019-05-30T15:40:45.682Z,96815.52
2019-05-30T15:43:13.454Z,96821.34
2019-05-30T15:45:40.512Z,96819.77
2019-05-30T15:48:08.275Z,96816.83
2019-05-30T15:50:35.481Z,96820.90
2019-05-30T15:53:02.555Z,96821.55
2019-05-30T15:55:29.572Z,96826.38
2019-05-30T15:57:56.626Z,96826.34
2019-05-30T16:00:23.661Z,96820.36
2019-05-30T16:02:50.728Z,96813.58
2019-05-30T16:05:18.690Z,96822.53
2019-05-30T16:07:45.790Z,96826.60
2019-05-30T16:10:12.975Z,96822.37
2019-05-30T16:12:40.415Z,96822.67
2019-05-30T16:15:07.592Z,96824.89
2019-05-30T16:17:34.632Z,96824.59
2019-05-30T16:20:01.667Z,96825.56
2019-05-30T16:22:30.087Z,96827.79
2019-05-30T16:24:57.878Z,96829.20
2019-05-30T16:27:26.096Z,96830.47
2019-05-30T16:29:53.433Z,96829.87
2019-05-30T16:32:20.487Z,96826.03
2019-05-30T16:34:47.521Z,96831.30
2019-05-30T16:40:05.189Z,96822.03
2019-05-30T16:42:23.768Z,96825.27
2019-05-30T16:44:50.875Z,96820.67
2019-05-30T16:47:18.420Z,96816.54
2019-05-30T16:49:45.452Z,96817.63
2019-05-30T16:52:12.843Z,96816.49
2019-05-30T16:54:39.929Z,96816.03
2019-05-30T16:57:06.966Z,96814.54
2019-05-30T16:59:34.012Z,96820.16
2019-05-30T17:02:01.347Z,96818.73
2019-05-30T17:04:28.392Z,96819.17
2019-05-30T17:06:55.425Z,96818.89
2019-05-30T17:09:23.493Z,96821.45
2019-05-30T17:11:50.965Z,96821.12
2019-05-30T17:14:18.012Z,96821.97
2019-05-30T17:16:45.050Z,96823.25
2019-05-30T17:19:12.536Z,96822.86
2019-05-30T17:21:39.604Z,96826.46
2019-05-30T17:24:06.621Z,96826.80
2019-05-30T17:26:34.731Z,96830.69
2019-05-30T17:29:01.784Z,96834.02
2019-05-30T17:31:28.845Z,96830.54
2019-05-30T17:33:55.977Z,96836.42
2019-05-30T17:36:24.197Z,96833.31
2019-05-30T17:38:51.312Z,96837.94
2019-05-30T17:41:18.728Z,96834.67
2019-05-30T17:43:45.744Z,96829.87
2019-05-30T17:46:12.781Z,96836.00
2019-05-30T17:48:39.833Z,96831.84
2019-05-30T17:51:06.864Z,96835.12
2019-05-30T17:53:33.915Z,96837.77
2019-05-30T17:56:00.950Z,96841.05
2019-05-30T17:58:28.358Z,96843.73
2019-05-30T18:00:57.266Z,96842.84
2019-05-30T18:03:24.552Z,96839.53
2019-05-30T18:05:51.585Z,96839.66
2019-05-30T18:08:18.637Z,96840.29
2019-05-30T18:10:53.781Z,96842.55
2019-05-30T18:13:14.409Z,96842.75
2019-05-30T18:15:41.793Z,96848.40
2019-05-30T18:18:09.150Z,96847.69
2019-05-30T18:20:47.733Z,96851.42
2019-05-30T18:23:05.288Z,96847.76
2019-05-30T18:25:32.336Z,96845.00
2019-05-30T18:27:59.375Z,96849.59
2019-05-30T18:30:26.420Z,96848.05
2019-05-30T18:32:53.454Z,96850.19
2019-05-30T18:35:20.503Z,96852.93
2019-05-30T18:37:47.531Z,96845.01
2019-05-30T18:40:14.931Z,96845.10
2019-05-30T18:42:42.019Z,96846.02
2019-05-30T18:45:09.445Z,96852.02
2019-05-30T18:47:36.478Z,96856.79
2019-05-30T18:50:03.519Z,96861.56
2019-05-30T18:52:30.564Z,96857.77
2019-05-30T18:54:57.614Z,96858.45
2019-05-30T18:57:24.653Z,96863.11
2019-05-30T18:59:52.028Z,96866.74
2019-05-30T19:02:19.065Z,96862.55
2019-05-30T19:04:46.437Z,96871.08
2019-05-30T19:07:13.470Z,96879.49
2019-05-30T19:09:40.590Z,96875.49
2019-05-30T19:12:07.552Z,96880.05
2019-05-30T19:14:37.121Z,96880.44
2019-05-30T19:17:03.628Z,96877.36
2019-05-30T19:19:31.872Z,96882.73
2019-05-30T19:21:58.859Z,96879.55
2019-05-30T19:24:26.060Z,96885.95
2019-05-30T19:26:53.120Z,96893.45
2019-05-30T19:29:20.195Z,96893.02
2019-05-30T19:31:47.228Z,96898.38
2019-05-30T19:34:14.507Z,96899.47
2019-05-30T19:36:41.560Z,96903.81
2019-05-30T19:39:08.593Z,96902.56
2019-05-30T19:41:52.629Z,96906.91
2019-05-30T19:44:04.373Z,96910.44
2019-05-30T19:46:32.275Z,96917.43
2019-05-30T19:48:59.372Z,96911.40
2019-05-30T19:51:26.694Z,96914.42
2019-05-30T19:53:54.054Z,96915.30
2019-05-30T19:56:21.101Z,96918.33
2019-05-30T19:58:48.143Z,96915.06
2019-05-30T20:01:15.198Z,96916.88
2019-05-30T20:03:46.713Z,96914.71
2019-05-30T20:06:11.337Z,96919.52
2019-05-30T20:08:51.319Z,96919.72
2019-05-30T20:11:07.481Z,96922.23
2019-05-30T20:13:35.043Z,96919.47
2019-05-30T20:16:02.218Z,96922.98
2019-05-30T20:18:29.253Z,96921.55
2019-05-30T20:20:57.913Z,96923.24
2019-05-30T20:23:25.033Z,96920.47
2019-05-30T20:25:52.086Z,96921.36
2019-05-30T20:28:19.129Z,96925.38
2019-05-30T20:30:46.525Z,96918.65
2019-05-30T20:33:13.571Z,96929.40
2019-05-30T20:35:41.748Z,96928.27
2019-05-30T20:38:09.720Z,96929.27
2019-05-30T20:40:36.954Z,96930.97
2019-05-30T20:43:04.079Z,96930.84
2019-05-30T20:45:31.113Z,96927.06
2019-05-30T20:47:58.157Z,96928.57
2019-05-30T20:50:25.200Z,96930.08
2019-05-30T20:52:52.236Z,96929.27
2019-05-30T20:55:19.838Z,96929.77
2019-05-30T20:57:47.042Z,96934.23
2019-05-30T21:00:14.078Z,96934.55
2019-05-30T21:02:41.298Z,96932.91
2019-05-30T21:05:08.584Z,96932.72
2019-05-30T21:07:35.991Z,96941.14
2019-05-30T21:10:02.971Z,96935.55
2019-05-30T21:12:37.741Z,96936.36
2019-05-30T21:14:59.086Z,96932.72
2019-05-30T21:17:26.136Z,96930.58
2019-05-30T21:19:53.164Z,96934.73
2019-05-30T21:22:20.469Z,96938.06
2019-05-30T21:24:47.825Z,96939.06
2019-05-30T21:27:14.877Z,96940.38
2019-05-30T21:29:43.085Z,96946.98
2019-05-30T21:32:10.608Z,96947.98
2019-05-30T21:34:37.987Z,96943.71
2019-05-30T21:37:05.548Z,96942.58
2019-05-30T21:39:32.569Z,96939.62
2019-05-30T21:41:59.623Z,96945.94
2019-05-30T21:44:26.659Z,96941.66
2019-05-30T21:46:53.788Z,96943.66
2019-05-30T21:49:20.810Z,96942.53
2019-05-30T21:51:47.861Z,96946.67
2019-05-30T21:54:14.897Z,96945.86
2019-05-30T21:56:41.994Z,96951.64
2019-05-30T21:59:08.986Z,96947.55
2019-05-30T22:01:36.022Z,96944.91
2019-05-30T22:04:03.316Z,96940.32
2019-05-30T22:06:30.420Z,96947.92
2019-05-30T22:08:57.477Z,96944.14
2019-05-30T22:11:24.510Z,96953.25
2019-05-30T22:13:52.071Z,96944.20
2019-05-30T22:16:19.064Z,96947.34
2019-05-30T22:18:46.115Z,96948.84
2019-05-30T22:21:13.148Z,96948.84
2019-05-30T22:23:40.561Z,96947.39
2019-05-30T22:26:07.591Z,96947.58
2019-05-30T22:28:34.645Z,96941.98
2019-05-30T22:31:01.679Z,96943.30
2019-05-30T22:33:28.973Z,96947.45
2019-05-30T22:35:56.004Z,96947.13
2019-05-30T22:38:23.362Z,96954.41
2019-05-30T22:40:50.397Z,96949.50
2019-05-30T22:43:25.172Z,96948.67
2019-05-30T22:45:48.186Z,96952.64
2019-05-30T22:48:15.245Z,96957.59
2019-05-30T22:50:42.289Z,96956.78
2019-05-30T22:53:09.336Z,96957.46
2019-05-30T22:55:36.375Z,96956.01
2019-05-30T22:58:03.424Z,96949.09
2019-05-30T23:00:30.458Z,96949.09
2019-05-30T23:02:57.497Z,96952.73
2019-05-30T23:05:24.793Z,96951.28
2019-05-30T23:07:51.831Z,96949.51
2019-05-30T23:10:18.877Z,96942.78
2019-05-30T23:12:46.231Z,96940.86
2019-05-30T23:15:13.275Z,96938.05
2019-05-30T23:17:40.314Z,96937.73
2019-05-30T23:20:07.362Z,96931.64
2019-05-30T23:22:34.397Z,96934.28
2019-05-30T23:25:01.473Z,96929.51
2019-05-30T23:27:28.485Z,96932.33
2019-05-30T23:29:55.952Z,96928.87
2019-05-30T23:32:23.143Z,96928.55
2019-05-30T23:34:50.227Z,96927.41
2019-05-30T23:37:17.225Z,96924.78
2019-05-30T23:39:44.410Z,96921.83
2019-05-30T23:42:11.453Z,96928.10
2019-05-30T23:44:38.499Z,96919.73
2019-05-30T23:47:05.855Z,96923.05
2019-05-30T23:49:32.869Z,96925.05
2019-05-30T23:52:00.427Z,96923.92
2019-05-30T23:54:28.710Z,96920.14
2019-05-30T23:56:56.490Z,96922.97
2019-05-30T23:59:24.553Z,96922.83
